sensor_id;sensor_type;location;lat;lon;timestamp;pressure;altitude;pressure_sealevel;temperature;humidity
62544;BME280;48597;49.030;1.822;2022-11-15T00:00:33;100208.72;;;19.33;51.53
62544;BME280;48597;49.030;1.822;2022-11-15T00:02:58;100215.69;;;19.32;51.42
62544;BME280;48597;49.030;1.822;2022-11-15T00:05:24;100198.56;;;19.32;51.48
62544;BME280;48597;49.030;1.822;2022-11-15T00:07:50;100208.38;;;19.31;51.48
62544;BME280;48597;49.030;1.822;2022-11-15T00:10:15;100199.81;;;19.31;51.40
62544;BME280;48597;49.030;1.822;2022-11-15T00:12:41;100196.94;;;19.31;51.39
62544;BME280;48597;49.030;1.822;2022-11-15T00:15:07;100198.22;;;19.30;51.41
62544;BME280;48597;49.030;1.822;2022-11-15T00:17:32;100187.59;;;19.31;51.32
62544;BME280;48597;49.030;1.822;2022-11-15T00:19:57;100187.59;;;19.31;51.36
62544;BME280;48597;49.030;1.822;2022-11-15T00:22:23;100176.16;;;19.31;51.56
62544;BME280;48597;49.030;1.822;2022-11-15T00:24:48;100174.09;;;19.31;51.55
62544;BME280;48597;49.030;1.822;2022-11-15T00:27:14;100176.16;;;19.31;51.36
62544;BME280;48597;49.030;1.822;2022-11-15T00:29:39;100165.19;;;19.29;51.46
62544;BME280;48597;49.030;1.822;2022-11-15T00:32:11;100172.50;;;19.30;51.38
62544;BME280;48597;49.030;1.822;2022-11-15T00:34:36;100172.50;;;19.30;51.28
62544;BME280;48597;49.030;1.822;2022-11-15T00:37:02;100156.16;;;19.31;51.25
62544;BME280;48597;49.030;1.822;2022-11-15T00:39:27;100162.66;;;19.31;51.22
62544;BME280;48597;49.030;1.822;2022-11-15T00:41:53;100168.38;;;19.31;51.25
62544;BME280;48597;49.030;1.822;2022-11-15T00:44:18;100161.88;;;19.31;51.22
62544;BME280;48597;49.030;1.822;2022-11-15T00:46:43;100154.09;;;19.31;51.13
62544;BME280;48597;49.030;1.822;2022-11-15T00:49:09;100148.84;;;19.30;51.07
62544;BME280;48597;49.030;1.822;2022-11-15T00:51:34;100152.03;;;19.32;51.02
62544;BME280;48597;49.030;1.822;2022-11-15T00:54:00;100149.63;;;19.30;50.98
62544;BME280;48597;49.030;1.822;2022-11-15T00:56:25;100150.78;;;19.33;51.03
62544;BME280;48597;49.030;1.822;2022-11-15T00:58:50;100159.34;;;19.33;50.97
62544;BME280;48597;49.030;1.822;2022-11-15T01:01:16;100152.84;;;19.32;50.89
62544;BME280;48597;49.030;1.822;2022-11-15T01:03:41;100149.97;;;19.32;50.92
62544;BME280;48597;49.030;1.822;2022-11-15T01:06:08;100147.13;;;19.32;50.85
62544;BME280;48597;49.030;1.822;2022-11-15T01:08:34;100137.75;;;19.32;50.78
62544;BME280;48597;49.030;1.822;2022-11-15T01:11:01;100130.78;;;19.33;50.84
62544;BME280;48597;49.030;1.822;2022-11-15T01:13:30;100135.69;;;19.32;50.74
62544;BME280;48597;49.030;1.822;2022-11-15T01:15:56;100126.31;;;19.32;50.94
62544;BME280;48597;49.030;1.822;2022-11-15T01:18:21;100118.53;;;19.32;50.78
62544;BME280;48597;49.030;1.822;2022-11-15T01:20:46;100116.03;;;19.34;50.73
62544;BME280;48597;49.030;1.822;2022-11-15T01:23:11;100113.63;;;19.33;50.67
62544;BME280;48597;49.030;1.822;2022-11-15T01:25:37;100111.56;;;19.33;50.57
62544;BME280;48597;49.030;1.822;2022-11-15T01:28:02;100109.16;;;19.32;50.61
62544;BME280;48597;49.030;1.822;2022-11-15T01:30:28;100103.91;;;19.30;50.63
62544;BME280;48597;49.030;1.822;2022-11-15T01:32:53;100102.66;;;19.31;50.75
62544;BME280;48597;49.030;1.822;2022-11-15T01:35:18;100093.75;;;19.29;50.54
62544;BME280;48597;49.030;1.822;2022-11-15T01:37:45;100091.69;;;19.30;50.26
62544;BME280;48597;49.030;1.822;2022-11-15T01:40:10;100093.75;;;19.29;50.45
62544;BME280;48597;49.030;1.822;2022-11-15T01:42:36;100087.22;;;19.28;50.23
62544;BME280;48597;49.030;1.822;2022-11-15T01:45:01;100090.09;;;19.28;50.37
62544;BME280;48597;49.030;1.822;2022-11-15T01:47:33;100081.97;;;19.27;50.26
62544;BME280;48597;49.030;1.822;2022-11-15T01:50:10;100078.31;;;19.26;50.40
62544;BME280;48597;49.030;1.822;2022-11-15T01:52:37;100075.94;;;19.25;50.35
62544;BME280;48597;49.030;1.822;2022-11-15T01:57:42;100066.22;;;19.22;50.37
62544;BME280;48597;49.030;1.822;2022-11-15T02:00:09;100062.56;;;19.22;50.28
62544;BME280;48597;49.030;1.822;2022-11-15T02:02:36;100062.09;;;19.23;50.18
62544;BME280;48597;49.030;1.822;2022-11-15T02:05:02;100050.84;;;19.20;50.27
62544;BME280;48597;49.030;1.822;2022-11-15T02:07:29;100048.78;;;19.20;50.43
62544;BME280;48597;49.030;1.822;2022-11-15T02:09:58;100044.63;;;19.21;50.43
62544;BME280;48597;49.030;1.822;2022-11-15T02:12:26;100042.28;;;19.20;50.35
62544;BME280;48597;49.030;1.822;2022-11-15T02:14:53;100027.97;;;19.20;50.41
62544;BME280;48597;49.030;1.822;2022-11-15T02:32:43;100011.31;;;19.18;50.44
62544;BME280;48597;49.030;1.822;2022-11-15T02:38:27;99995.88;;;19.16;50.48
62544;BME280;48597;49.030;1.822;2022-11-15T02:43:56;99984.47;;;19.16;50.43
62544;BME280;48597;49.030;1.822;2022-11-15T02:49:17;99985.72;;;19.15;50.41
62544;BME280;48597;49.030;1.822;2022-11-15T02:51:44;99977.16;;;19.15;50.35
62544;BME280;48597;49.030;1.822;2022-11-15T02:54:14;99975.56;;;19.14;50.26
62544;BME280;48597;49.030;1.822;2022-11-15T02:56:42;99960.47;;;19.13;50.17
62544;BME280;48597;49.030;1.822;2022-11-15T03:07:15;99952.38;;;19.12;49.93
62544;BME280;48597;49.030;1.822;2022-11-15T03:12:31;99947.94;;;19.11;49.96
62544;BME280;48597;49.030;1.822;2022-11-15T03:15:04;99939.34;;;19.11;50.07
62544;BME280;48597;49.030;1.822;2022-11-15T03:17:35;99949.97;;;19.10;49.95
62544;BME280;48597;49.030;1.822;2022-11-15T03:20:03;99952.84;;;19.10;49.92
62544;BME280;48597;49.030;1.822;2022-11-15T03:22:35;99950.78;;;19.11;50.13
62544;BME280;48597;49.030;1.822;2022-11-15T03:25:04;99943.47;;;19.10;49.90
62544;BME280;48597;49.030;1.822;2022-11-15T03:27:36;99943.47;;;19.10;49.90
62544;BME280;48597;49.030;1.822;2022-11-15T03:30:04;99934.91;;;19.10;49.67
62544;BME280;48597;49.030;1.822;2022-11-15T03:32:34;99934.09;;;19.09;49.78
62544;BME280;48597;49.030;1.822;2022-11-15T03:35:08;99933.31;;;19.09;49.91
62544;BME280;48597;49.030;1.822;2022-11-15T03:40:16;99926.84;;;19.08;49.94
62544;BME280;48597;49.030;1.822;2022-11-15T03:42:48;99921.13;;;19.08;49.96
62544;BME280;48597;49.030;1.822;2022-11-15T03:45:39;99918.72;;;19.07;49.85
62544;BME280;48597;49.030;1.822;2022-11-15T03:48:21;99915.88;;;19.07;49.77
62544;BME280;48597;49.030;1.822;2022-11-15T03:50:48;99926.84;;;19.08;49.78
62544;BME280;48597;49.030;1.822;2022-11-15T03:53:14;99920.31;;;19.08;49.63
62544;BME280;48597;49.030;1.822;2022-11-15T03:55:39;99913.00;;;19.07;49.61
62544;BME280;48597;49.030;1.822;2022-11-15T03:58:05;99917.13;;;19.06;49.68
62544;BME280;48597;49.030;1.822;2022-11-15T04:00:31;99917.94;;;19.06;49.69
62544;BME280;48597;49.030;1.822;2022-11-15T04:02:56;99918.41;;;19.05;49.63
62544;BME280;48597;49.030;1.822;2022-11-15T04:05:21;99905.72;;;19.06;49.51
62544;BME280;48597;49.030;1.822;2022-11-15T04:07:47;99900.00;;;19.06;49.46
62544;BME280;48597;49.030;1.822;2022-11-15T04:10:14;99909.81;;;19.05;49.67
62544;BME280;48597;49.030;1.822;2022-11-15T04:12:41;99909.03;;;19.04;49.61
62544;BME280;48597;49.030;1.822;2022-11-15T04:15:16;99909.03;;;19.04;49.50
62544;BME280;48597;49.030;1.822;2022-11-15T04:17:49;99911.88;;;19.04;49.47
62544;BME280;48597;49.030;1.822;2022-11-15T04:20:16;99909.03;;;19.04;49.37
62544;BME280;48597;49.030;1.822;2022-11-15T04:23:04;99901.72;;;19.03;49.36
62544;BME280;48597;49.030;1.822;2022-11-15T04:25:51;99896.81;;;19.04;49.10
62544;BME280;48597;49.030;1.822;2022-11-15T04:28:18;99886.66;;;19.03;49.08
62544;BME280;48597;49.030;1.822;2022-11-15T04:30:43;99889.50;;;19.03;49.39
62544;BME280;48597;49.030;1.822;2022-11-15T04:33:08;99885.38;;;19.04;49.29
62544;BME280;48597;49.030;1.822;2022-11-15T04:35:34;99873.97;;;19.04;49.31
62544;BME280;48597;49.030;1.822;2022-11-15T04:38:00;99872.38;;;19.03;49.54
62544;BME280;48597;49.030;1.822;2022-11-15T04:40:25;99873.63;;;19.02;49.71
62544;BME280;48597;49.030;1.822;2022-11-15T04:42:51;99863.47;;;19.01;49.14
62544;BME280;48597;49.030;1.822;2022-11-15T04:45:16;99865.84;;;19.02;49.09
62544;BME280;48597;49.030;1.822;2022-11-15T04:47:45;99849.53;;;19.03;49.26
62544;BME280;48597;49.030;1.822;2022-11-15T04:50:12;99848.72;;;19.02;48.71
62544;BME280;48597;49.030;1.822;2022-11-15T04:52:42;99840.63;;;19.01;48.66
62544;BME280;48597;49.030;1.822;2022-11-15T04:55:11;99841.09;;;18.99;48.90
62544;BME280;48597;49.030;1.822;2022-11-15T04:57:37;99841.09;;;18.99;49.00
62544;BME280;48597;49.030;1.822;2022-11-15T05:00:04;99849.66;;;18.99;48.56
62544;BME280;48597;49.030;1.822;2022-11-15T05:02:31;99848.84;;;18.99;48.44
62544;BME280;48597;49.030;1.822;2022-11-15T05:05:16;99848.84;;;18.99;48.68
62544;BME280;48597;49.030;1.822;2022-11-15T05:07:42;99843.59;;;18.97;48.41
62544;BME280;48597;49.030;1.822;2022-11-15T05:10:07;99844.06;;;18.96;48.55
62544;BME280;48597;49.030;1.822;2022-11-15T05:12:33;99844.88;;;18.96;48.72
62544;BME280;48597;49.030;1.822;2022-11-15T05:14:58;99845.66;;;18.97;48.20
62544;BME280;48597;49.030;1.822;2022-11-15T05:17:23;99844.88;;;18.96;48.37
62544;BME280;48597;49.030;1.822;2022-11-15T05:19:49;99849.78;;;18.96;47.98
62544;BME280;48597;49.030;1.822;2022-11-15T05:22:14;99841.22;;;18.96;48.04
62544;BME280;48597;49.030;1.822;2022-11-15T05:24:39;99841.22;;;18.96;47.84
62544;BME280;48597;49.030;1.822;2022-11-15T05:27:05;99835.22;;;18.94;47.85
62544;BME280;48597;49.030;1.822;2022-11-15T05:29:30;99834.41;;;18.93;48.08
62544;BME280;48597;49.030;1.822;2022-11-15T05:31:55;99820.59;;;18.91;47.80
62544;BME280;48597;49.030;1.822;2022-11-15T05:34:20;99822.19;;;18.92;47.54
62544;BME280;48597;49.030;1.822;2022-11-15T05:36:48;99799.81;;;18.91;47.79
62544;BME280;48597;49.030;1.822;2022-11-15T05:39:13;99794.56;;;18.89;47.65
62544;BME280;48597;49.030;1.822;2022-11-15T05:41:45;99793.78;;;18.89;47.62
62544;BME280;48597;49.030;1.822;2022-11-15T05:44:13;99783.63;;;18.88;47.73
62544;BME280;48597;49.030;1.822;2022-11-15T05:46:40;99787.28;;;18.88;47.61
62544;BME280;48597;49.030;1.822;2022-11-15T05:49:11;99779.97;;;18.87;47.84
62544;BME280;48597;49.030;1.822;2022-11-15T05:51:38;99771.41;;;18.87;48.35
62544;BME280;48597;49.030;1.822;2022-11-15T05:54:04;99756.31;;;18.87;48.48
62544;BME280;48597;49.030;1.822;2022-11-15T05:56:30;99753.47;;;18.87;48.55
62544;BME280;48597;49.030;1.822;2022-11-15T05:58:56;99764.09;;;18.86;48.88
62544;BME280;48597;49.030;1.822;2022-11-15T06:01:23;99761.25;;;18.86;49.24
62544;BME280;48597;49.030;1.822;2022-11-15T06:03:50;99757.13;;;18.87;49.53
62544;BME280;48597;49.030;1.822;2022-11-15T06:06:15;99748.56;;;18.87;49.54
62544;BME280;48597;49.030;1.822;2022-11-15T06:08:40;99742.38;;;18.89;49.57
62544;BME280;48597;49.030;1.822;2022-11-15T06:11:06;99737.47;;;18.89;49.67
62544;BME280;48597;49.030;1.822;2022-11-15T06:13:33;99740.31;;;18.89;49.85
62544;BME280;48597;49.030;1.822;2022-11-15T06:15:58;99741.13;;;18.90;50.03
62544;BME280;48597;49.030;1.822;2022-11-15T06:18:23;99739.06;;;18.90;49.90
62544;BME280;48597;49.030;1.822;2022-11-15T06:20:49;99738.13;;;18.94;49.77
62544;BME280;48597;49.030;1.822;2022-11-15T06:23:14;99720.81;;;18.97;49.72
62544;BME280;48597;49.030;1.822;2022-11-15T06:25:39;99710.97;;;18.98;49.77
62544;BME280;48597;49.030;1.822;2022-11-15T06:28:05;99716.22;;;19.00;49.96
62544;BME280;48597;49.030;1.822;2022-11-15T06:30:30;99718.28;;;18.99;50.02
62544;BME280;48597;49.030;1.822;2022-11-15T06:33:00;99711.78;;;18.99;50.03
62544;BME280;48597;49.030;1.822;2022-11-15T06:35:26;99701.94;;;19.00;50.11
62544;BME280;48597;49.030;1.822;2022-11-15T06:37:52;99713.38;;;19.00;50.26
62544;BME280;48597;49.030;1.822;2022-11-15T06:40:17;99714.97;;;19.01;50.29
62544;BME280;48597;49.030;1.822;2022-11-15T06:42:42;99706.41;;;19.01;50.16
62544;BME280;48597;49.030;1.822;2022-11-15T06:45:08;99712.09;;;19.01;50.29
62544;BME280;48597;49.030;1.822;2022-11-15T06:47:33;99710.03;;;19.01;50.24
62544;BME280;48597;49.030;1.822;2022-11-15T06:49:58;99702.75;;;19.00;50.35
62544;BME280;48597;49.030;1.822;2022-11-15T06:52:24;99708.13;;;18.98;50.55
62544;BME280;48597;49.030;1.822;2022-11-15T06:54:49;99698.75;;;18.98;50.33
62544;BME280;48597;49.030;1.822;2022-11-15T06:57:15;99692.72;;;18.96;50.54
62544;BME280;48597;49.030;1.822;2022-11-15T06:59:40;99691.97;;;18.95;50.73
62544;BME280;48597;49.030;1.822;2022-11-15T07:02:05;99685.13;;;18.92;50.50
62544;BME280;48597;49.030;1.822;2022-11-15T07:04:31;99676.88;;;18.95;50.74
62544;BME280;48597;49.030;1.822;2022-11-15T07:06:56;99678.44;;;18.96;50.64
62544;BME280;48597;49.030;1.822;2022-11-15T07:09:21;99688.59;;;18.97;50.47
62544;BME280;48597;49.030;1.822;2022-11-15T07:11:47;99673.53;;;18.96;50.17
62544;BME280;48597;49.030;1.822;2022-11-15T07:14:12;99678.44;;;18.96;50.27
62544;BME280;48597;49.030;1.822;2022-11-15T07:16:37;99678.94;;;18.94;50.30
62544;BME280;48597;49.030;1.822;2022-11-15T07:19:03;99686.72;;;18.94;50.30
62544;BME280;48597;49.030;1.822;2022-11-15T07:21:29;99683.88;;;18.94;50.22
62544;BME280;48597;49.030;1.822;2022-11-15T07:23:54;99684.66;;;18.94;50.00
62544;BME280;48597;49.030;1.822;2022-11-15T07:26:19;99672.44;;;18.94;50.14
62544;BME280;48597;49.030;1.822;2022-11-15T07:28:45;99661.50;;;18.92;50.13
62544;BME280;48597;49.030;1.822;2022-11-15T07:31:10;99659.91;;;18.91;50.23
62544;BME280;48597;49.030;1.822;2022-11-15T07:33:36;99653.41;;;18.90;50.07
62544;BME280;48597;49.030;1.822;2022-11-15T07:36:03;99654.19;;;18.91;49.81
62544;BME280;48597;49.030;1.822;2022-11-15T07:38:29;99656.25;;;18.90;50.01
62544;BME280;48597;49.030;1.822;2022-11-15T07:40:59;99648.63;;;18.87;49.87
62544;BME280;48597;49.030;1.822;2022-11-15T07:43:25;99647.03;;;18.86;49.87
62544;BME280;48597;49.030;1.822;2022-11-15T07:45:53;99649.09;;;18.86;49.45
62544;BME280;48597;49.030;1.822;2022-11-15T07:48:18;99655.28;;;18.84;49.56
62544;BME280;48597;49.030;1.822;2022-11-15T07:50:44;99654.47;;;18.84;49.60
62544;BME280;48597;49.030;1.822;2022-11-15T07:53:10;99647.19;;;18.83;49.72
62544;BME280;48597;49.030;1.822;2022-11-15T07:55:36;99647.69;;;18.81;49.40
62544;BME280;48597;49.030;1.822;2022-11-15T07:58:06;99644.19;;;18.77;49.86
62544;BME280;48597;49.030;1.822;2022-11-15T08:00:32;99637.66;;;18.77;50.06
62544;BME280;48597;49.030;1.822;2022-11-15T08:03:02;99641.78;;;18.76;50.12
62544;BME280;48597;49.030;1.822;2022-11-15T08:05:27;99643.38;;;18.77;49.67
62544;BME280;48597;49.030;1.822;2022-11-15T08:07:55;99641.78;;;18.76;49.66
62544;BME280;48597;49.030;1.822;2022-11-15T08:10:20;99643.06;;;18.75;50.00
62544;BME280;48597;49.030;1.822;2022-11-15T08:12:46;99650.81;;;18.74;49.81
62544;BME280;48597;49.030;1.822;2022-11-15T08:15:11;99645.91;;;18.75;49.63
62544;BME280;48597;49.030;1.822;2022-11-15T08:17:37;99642.72;;;18.73;49.64
62544;BME280;48597;49.030;1.822;2022-11-15T08:20:02;99639.53;;;18.71;49.54
62544;BME280;48597;49.030;1.822;2022-11-15T08:22:28;99622.91;;;18.69;49.43
62544;BME280;48597;49.030;1.822;2022-11-15T08:24:54;99640.03;;;18.69;49.24
62544;BME280;48597;49.030;1.822;2022-11-15T08:27:19;99617.22;;;18.69;49.02
62544;BME280;48597;49.030;1.822;2022-11-15T08:29:45;99622.91;;;18.69;49.23
62544;BME280;48597;49.030;1.822;2022-11-15T08:32:11;99620.06;;;18.69;49.12
62544;BME280;48597;49.030;1.822;2022-11-15T08:34:38;99620.06;;;18.69;49.30
62544;BME280;48597;49.030;1.822;2022-11-15T08:37:04;99628.94;;;18.71;49.18
62544;BME280;48597;49.030;1.822;2022-11-15T08:39:29;99623.22;;;18.71;49.44
62544;BME280;48597;49.030;1.822;2022-11-15T08:41:55;99620.84;;;18.70;49.77
62544;BME280;48597;49.030;1.822;2022-11-15T08:44:20;99628.94;;;18.71;49.36
62544;BME280;48597;49.030;1.822;2022-11-15T08:46:46;99609.28;;;18.73;49.66
62544;BME280;48597;49.030;1.822;2022-11-15T08:49:11;99618.63;;;18.74;49.86
62544;BME280;48597;49.030;1.822;2022-11-15T08:51:37;99612.44;;;18.75;49.86
62544;BME280;48597;49.030;1.822;2022-11-15T08:54:02;99618.16;;;18.75;50.03
62544;BME280;48597;49.030;1.822;2022-11-15T08:56:28;99622.13;;;18.78;49.94
62544;BME280;48597;49.030;1.822;2022-11-15T08:58:53;99623.72;;;18.79;49.93
62544;BME280;48597;49.030;1.822;2022-11-15T09:01:20;99622.47;;;18.80;50.02
62544;BME280;48597;49.030;1.822;2022-11-15T09:03:45;99606.91;;;18.81;49.90
62544;BME280;48597;49.030;1.822;2022-11-15T09:06:11;99607.22;;;18.83;49.90
62544;BME280;48597;49.030;1.822;2022-11-15T09:08:37;99618.63;;;18.83;49.99
62544;BME280;48597;49.030;1.822;2022-11-15T09:11:04;99615.78;;;18.83;49.92
62544;BME280;48597;49.030;1.822;2022-11-15T09:13:29;99614.50;;;18.84;50.23
62544;BME280;48597;49.030;1.822;2022-11-15T09:15:59;99624.66;;;18.85;50.07
62544;BME280;48597;49.030;1.822;2022-11-15T09:18:25;99616.09;;;18.85;50.08
62544;BME280;48597;49.030;1.822;2022-11-15T09:20:50;99611.97;;;18.86;50.01
62544;BME280;48597;49.030;1.822;2022-11-15T09:23:15;99607.06;;;18.86;50.13
62544;BME280;48597;49.030;1.822;2022-11-15T09:25:41;99604.53;;;18.88;50.18
62544;BME280;48597;49.030;1.822;2022-11-15T09:28:07;99606.13;;;18.89;50.16
62544;BME280;48597;49.030;1.822;2022-11-15T09:30:33;99606.44;;;18.91;50.66
62544;BME280;48597;49.030;1.822;2022-11-15T09:32:58;99601.06;;;18.94;50.29
62544;BME280;48597;49.030;1.822;2022-11-15T09:35:24;99593.75;;;18.92;50.43
62544;BME280;48597;49.030;1.822;2022-11-15T09:37:49;99588.84;;;18.93;50.30
62544;BME280;48597;49.030;1.822;2022-11-15T09:40:16;99590.72;;;18.96;50.37
62544;BME280;48597;49.030;1.822;2022-11-15T09:45:38;99580.09;;;18.97;50.42
62544;BME280;48597;49.030;1.822;2022-11-15T09:53:03;99553.44;;;19.00;50.63
62544;BME280;48597;49.030;1.822;2022-11-15T09:55:36;99552.66;;;18.99;50.63
62544;BME280;48597;49.030;1.822;2022-11-15T09:58:22;99554.25;;;19.00;50.70
62544;BME280;48597;49.030;1.822;2022-11-15T10:00:51;99541.56;;;19.01;50.75
62544;BME280;48597;49.030;1.822;2022-11-15T10:03:33;99539.97;;;19.00;50.78
62544;BME280;48597;49.030;1.822;2022-11-15T10:06:01;99536.31;;;19.00;50.86
62544;BME280;48597;49.030;1.822;2022-11-15T10:08:46;99529.81;;;18.99;50.86
62544;BME280;48597;49.030;1.822;2022-11-15T10:11:19;99525.22;;;19.02;50.85
62544;BME280;48597;49.030;1.822;2022-11-15T10:13:46;99512.53;;;19.03;50.79
62544;BME280;48597;49.030;1.822;2022-11-15T10:24:42;99512.53;;;19.03;51.13
62544;BME280;48597;49.030;1.822;2022-11-15T10:27:17;99497.44;;;19.02;51.15
62544;BME280;48597;49.030;1.822;2022-11-15T10:29:48;99508.41;;;19.04;51.12
62544;BME280;48597;49.030;1.822;2022-11-15T10:32:14;99490.47;;;19.03;51.17
62544;BME280;48597;49.030;1.822;2022-11-15T10:34:40;99487.63;;;19.03;51.14
62544;BME280;48597;49.030;1.822;2022-11-15T10:37:06;99495.41;;;19.03;51.11
62544;BME280;48597;49.030;1.822;2022-11-15T10:39:31;99481.13;;;19.03;51.14
62544;BME280;48597;49.030;1.822;2022-11-15T10:42:15;99474.13;;;19.04;51.05
62544;BME280;48597;49.030;1.822;2022-11-15T10:44:44;99477.00;;;19.04;50.84
62544;BME280;48597;49.030;1.822;2022-11-15T10:47:31;99471.28;;;19.04;51.04
62544;BME280;48597;49.030;1.822;2022-11-15T10:50:25;99465.56;;;19.04;50.92
62544;BME280;48597;49.030;1.822;2022-11-15T10:52:51;99465.56;;;19.04;50.87
62544;BME280;48597;49.030;1.822;2022-11-15T10:57:50;99447.16;;;19.05;50.77
62544;BME280;48597;49.030;1.822;2022-11-15T11:08:33;99441.44;;;19.05;50.65
62544;BME280;48597;49.030;1.822;2022-11-15T11:11:00;99435.75;;;19.05;50.66
62544;BME280;48597;49.030;1.822;2022-11-15T11:16:41;99433.34;;;19.03;50.79
62544;BME280;48597;49.030;1.822;2022-11-15T11:21:29;99430.81;;;19.05;50.74
62544;BME280;48597;49.030;1.822;2022-11-15T11:24:22;99422.72;;;19.04;50.86
62544;BME280;48597;49.030;1.822;2022-11-15T11:32:22;99390.53;;;19.03;50.76
62544;BME280;48597;49.030;1.822;2022-11-15T11:35:06;99384.34;;;19.05;50.82
62544;BME280;48597;49.030;1.822;2022-11-15T11:38:15;99381.47;;;19.05;50.73
62544;BME280;48597;49.030;1.822;2022-11-15T11:41:10;99368.00;;;19.05;50.83
62544;BME280;48597;49.030;1.822;2022-11-15T11:48:45;99350.88;;;19.05;50.85
62544;BME280;48597;49.030;1.822;2022-11-15T11:56:22;99343.09;;;19.06;50.73
62544;BME280;48597;49.030;1.822;2022-11-15T11:58:50;99337.38;;;19.06;50.79
62544;BME280;48597;49.030;1.822;2022-11-15T12:01:24;99341.81;;;19.07;50.75
62544;BME280;48597;49.030;1.822;2022-11-15T12:04:01;99326.25;;;19.08;50.70
62544;BME280;48597;49.030;1.822;2022-11-15T12:09:35;99317.69;;;19.08;50.75
62544;BME280;48597;49.030;1.822;2022-11-15T12:17:33;99311.19;;;19.07;50.79
62544;BME280;48597;49.030;1.822;2022-11-15T12:20:04;99309.13;;;19.08;50.90
62544;BME280;48597;49.030;1.822;2022-11-15T12:22:43;99308.34;;;19.07;50.79
62544;BME280;48597;49.030;1.822;2022-11-15T12:30:59;99296.72;;;19.11;51.04
62544;BME280;48597;49.030;1.822;2022-11-15T12:36:03;99299.25;;;19.09;51.27
62544;BME280;48597;49.030;1.822;2022-11-15T12:41:18;99287.06;;;19.08;51.32
62544;BME280;48597;49.030;1.822;2022-11-15T12:43:44;99289.41;;;19.10;51.26
62544;BME280;48597;49.030;1.822;2022-11-15T12:49:07;99269.94;;;19.08;51.22
62544;BME280;48597;49.030;1.822;2022-11-15T12:59:51;99262.94;;;19.09;51.03
62544;BME280;48597;49.030;1.822;2022-11-15T13:02:27;99261.66;;;19.10;51.03
62544;BME280;48597;49.030;1.822;2022-11-15T13:13:04;99242.94;;;19.09;50.96
62544;BME280;48597;49.030;1.822;2022-11-15T13:18:39;99235.16;;;19.10;51.05
62544;BME280;48597;49.030;1.822;2022-11-15T13:21:20;99225.00;;;19.09;51.00
62544;BME280;48597;49.030;1.822;2022-11-15T13:24:04;99237.22;;;19.09;51.00
62544;BME280;48597;49.030;1.822;2022-11-15T13:26:38;99220.88;;;19.10;50.95
62544;BME280;48597;49.030;1.822;2022-11-15T13:29:04;99218.03;;;19.10;50.98
62544;BME280;48597;49.030;1.822;2022-11-15T13:31:43;99207.88;;;19.09;50.93
62544;BME280;48597;49.030;1.822;2022-11-15T13:34:30;99204.53;;;19.10;50.86
62544;BME280;48597;49.030;1.822;2022-11-15T13:37:01;99203.75;;;19.10;51.04
62544;BME280;48597;49.030;1.822;2022-11-15T13:39:31;99200.09;;;19.09;51.09
62544;BME280;48597;49.030;1.822;2022-11-15T13:41:57;99200.88;;;19.10;51.08
62544;BME280;48597;49.030;1.822;2022-11-15T13:44:30;99202.16;;;19.09;50.97
62544;BME280;48597;49.030;1.822;2022-11-15T13:47:06;99189.19;;;19.08;51.05
62544;BME280;48597;49.030;1.822;2022-11-15T13:49:33;99179.31;;;19.09;51.00
62544;BME280;48597;49.030;1.822;2022-11-15T13:52:05;99167.13;;;19.08;51.03
62544;BME280;48597;49.030;1.822;2022-11-15T13:54:50;99167.88;;;19.09;50.99
62544;BME280;48597;49.030;1.822;2022-11-15T13:57:32;99152.84;;;19.08;51.00
62544;BME280;48597;49.030;1.822;2022-11-15T14:00:05;99154.41;;;19.09;51.04
62544;BME280;48597;49.030;1.822;2022-11-15T14:02:33;99132.34;;;19.10;50.98
62544;BME280;48597;49.030;1.822;2022-11-15T14:07:28;99125.06;;;19.09;51.01
62544;BME280;48597;49.030;1.822;2022-11-15T14:09:54;99140.13;;;19.09;50.95
62544;BME280;48597;49.030;1.822;2022-11-15T14:12:34;99131.56;;;19.09;51.01
62544;BME280;48597;49.030;1.822;2022-11-15T14:15:17;99146.63;;;19.10;51.01
62544;BME280;48597;49.030;1.822;2022-11-15T14:17:43;99133.63;;;19.09;51.08
62544;BME280;48597;49.030;1.822;2022-11-15T14:22:53;99135.22;;;19.10;51.06
62544;BME280;48597;49.030;1.822;2022-11-15T14:25:23;99140.91;;;19.10;50.99
62544;BME280;48597;49.030;1.822;2022-11-15T14:28:09;99124.28;;;19.08;51.14
62544;BME280;48597;49.030;1.822;2022-11-15T14:30:35;99139.34;;;19.09;51.19
62544;BME280;48597;49.030;1.822;2022-11-15T14:33:01;99138.06;;;19.10;51.17
62544;BME280;48597;49.030;1.822;2022-11-15T14:35:26;99123.31;;;19.11;51.24
62544;BME280;48597;49.030;1.822;2022-11-15T14:37:52;99125.38;;;19.11;51.34
62544;BME280;48597;49.030;1.822;2022-11-15T14:40:20;99125.38;;;19.11;51.55
62544;BME280;48597;49.030;1.822;2022-11-15T14:42:48;99126.63;;;19.10;51.64
62544;BME280;48597;49.030;1.822;2022-11-15T14:45:16;99126.63;;;19.10;51.67
62544;BME280;48597;49.030;1.822;2022-11-15T14:47:42;99136.78;;;19.11;51.69
62544;BME280;48597;49.030;1.822;2022-11-15T14:50:12;99128.72;;;19.09;51.44
62544;BME280;48597;49.030;1.822;2022-11-15T14:52:38;99124.56;;;19.10;51.51
62544;BME280;48597;49.030;1.822;2022-11-15T14:57:40;99112.34;;;19.10;51.56
62544;BME280;48597;49.030;1.822;2022-11-15T15:00:06;99103.78;;;19.10;51.44
62544;BME280;48597;49.030;1.822;2022-11-15T15:02:33;99101.72;;;19.10;51.34
62544;BME280;48597;49.030;1.822;2022-11-15T15:04:58;99102.50;;;19.11;51.51
62544;BME280;48597;49.030;1.822;2022-11-15T15:07:26;99091.09;;;19.11;51.41
62544;BME280;48597;49.030;1.822;2022-11-15T15:09:51;99090.31;;;19.10;51.61
62544;BME280;48597;49.030;1.822;2022-11-15T15:12:18;99089.50;;;19.10;51.31
62544;BME280;48597;49.030;1.822;2022-11-15T15:14:47;99083.81;;;19.10;51.38
62544;BME280;48597;49.030;1.822;2022-11-15T15:17:12;99091.88;;;19.11;51.39
62544;BME280;48597;49.030;1.822;2022-11-15T15:19:38;99093.47;;;19.12;51.31
62544;BME280;48597;49.030;1.822;2022-11-15T15:22:03;99078.09;;;19.10;51.40